Pagrindinis puslapis
METAR-TAF:

METAR-TAF

Oro uostai :

Izmiras, Turkija

platuma: 38-30N, ilguma: 027-01E, Aukštis: 5 m

Dabartinis oras

Ataskaita buvo paskelbta 1 valandą ir 43 minutes, ne 18:08 UTC
Vėjas 20 kt iš Šiaurės su gūsio iki 31 kt
Temperatūra 7°C
Drėgmė 61%
Slėgis 1026 hPa
Matomumas 10 km arba daugiau
Išsisklaidę debesys ne aukštis 4000 ft

METAR: LTBL 021808Z 36020G31KT 9999 SCT040 07/00 Q1026 NOSIG RMK RWY17 02015KT

Laikas: 22:51 (19:51 UTC)

Prognozė

Ataskaita buvo paskelbta 59 minutes, ne 18:52 UTC
Prognozė galioja nuo 02 metu 18 UTC su 03 metu 03 UTC
Vėjas 18 kt iš Šiaurės su gūsio iki 30 kt
Matomumas 10 km arba daugiau
Išsisklaidę debesys ne aukštis 4000 ft

TAF: LTBL 021852Z 0218/0303 01018G30KT 9999 SCT040

Orai ataskaitas ir orų prognozės (METAR, TAF).

turimą stotys yra geltonos ir raudonos taškus žemėlapyje.

Perkelti pele per norėdami pamatyti stoties vardą.

Tada spustelėkite, norėdami matyti oro stebėjimo ir prognozės.

Norėdami pakeisti žemėlapį: spustelėkite ant žalios mygtukų su juodo kryžiaus žemyn,; žalią mygtuką su brūkšneliu, jei norite nutolinti; arba žalių rodyklių gretimoms žemėlapius.


METAR-TAF: